METAR Data
IDs: Format: Raw Decoded Include TAF

Data at: 0742 UTC 03 Aug 2021

KJAQ 030735Z AUTO 00000KT 10SM CLR 23/02 A3005 RMK AO1 T02290021
KJAQ 030715Z AUTO 00000KT 10SM CLR 23/02 A3005 RMK AO1 T02330020
KJAQ 030655Z AUTO 00000KT 10SM CLR 23/03 A3004 RMK AO1 T02300033
KJAQ 030635Z AUTO 29005KT 10SM CLR 24/04 A3004 RMK AO1 T02400035
KJAQ 030615Z AUTO 29005KT 10SM CLR 24/04 A3004 RMK AO1 T02400037
KJAQ 030555Z AUTO 28005KT 10SM CLR 24/03 A3004 RMK AO1 T02430033 10338 20243
KJAQ 030535Z AUTO 29004KT 10SM CLR 25/01 A3005 RMK AO1 T02540005
KJAQ 030515Z AUTO 31004KT 10SM CLR 26/01 A3005 RMK AO1 T02610005
KJAQ 030455Z AUTO 32004KT 10SM CLR 26/01 A3005 RMK AO1 T02640006
KJAQ 030435Z AUTO 33004KT 10SM CLR 26/01 A3005 RMK AO1 T02640006
KJAQ 030415Z AUTO 33004KT 10SM CLR 27/01 A3005 RMK AO1 T02670013
KJAQ 030355Z AUTO 32004KT 10SM CLR 27/02 A3004 RMK AO1 T02710016
KJAQ 030335Z AUTO 31004KT 10SM CLR 28/02 A3005 RMK AO1 T02760016
KJAQ 030315Z AUTO 31004KT 10SM CLR 28/02 A3005 RMK AO1 T02840015
KJAQ 030255Z AUTO 31004KT 10SM CLR 29/02 A3005 RMK AO1 T02900015
KJAQ 030235Z AUTO 32004KT 10SM CLR 30/02 A3005 RMK AO1 T02950018
KJAQ 030215Z AUTO 35007KT 10SM CLR 30/02 A3005 RMK AO1 T03030020
KJAQ 030155Z AUTO 30007KT 10SM CLR 32/02 A3005 RMK AO1 T03150024
KJAQ 030135Z AUTO 28006KT 10SM CLR 31/02 A3005 RMK AO1 T03090023
KJAQ 030115Z AUTO 29005KT 10SM CLR 32/03 A3006 RMK AO1 T03170025
KJAQ 030055Z AUTO 32007KT 280V010 10SM CLR 32/02 A3006 RMK AO1 T03210024
KJAQ 030035Z AUTO 30007KT 10SM CLR 32/02 A3006 RMK AO1 T03240023
KJAQ 030015Z AUTO 30007KT 10SM CLR 34/03 A3006 RMK AO1 T03360033
KJAQ 022355Z AUTO 29007KT 10SM CLR 33/04 A3007 RMK AO1 T03310038 10334 20266
KJAQ 022335Z AUTO 34006KT 10SM CLR 33/05 A3007 RMK AO1 T03340046
KJAQ 022315Z AUTO 28005KT 10SM CLR 33/04 A3007 RMK AO1 T03280042
KJAQ 022255Z AUTO 29007KT 10SM CLR 32/05 A3008 RMK AO1 T03240045
KJAQ 022235Z AUTO 31006KT 10SM CLR 33/03 A3009 RMK AO1 T03250030
KJAQ 022215Z AUTO 31008KT 10SM CLR 32/06 A3009 RMK AO1 T03230055
KJAQ 022155Z AUTO 33006KT 280V360 10SM CLR 31/06 A3010 RMK AO1 T03110064
KJAQ 022135Z AUTO 33006KT 10SM CLR 30/07 A3010 RMK AO1 T03040070
KJAQ 022115Z AUTO 31008KT 280V350 10SM CLR 31/07 A3011 RMK AO1 T03060074
KJAQ 022055Z AUTO 29008KT 270V350 10SM CLR 30/08 A3011 RMK AO1 T03030075
KJAQ 022035Z AUTO 32005KT 10SM CLR 30/08 A3011 RMK AO1 T03040080
KJAQ 022015Z AUTO 31005KT 10SM CLR 30/08 A3012 RMK AO1 T02970082
KJAQ 021955Z AUTO 29004KT 10SM CLR 29/09 A3012 RMK AO1 T02940085
KJAQ 021935Z AUTO 31006KT 10SM CLR 29/09 A3012 RMK AO1 T02910085
KJAQ 021915Z AUTO 27006KT 10SM CLR 28/09 A3012 RMK AO1 T02820090
KJAQ 021855Z AUTO 27005KT 10SM CLR 28/09 A3012 RMK AO1 T02790090
KJAQ 021835Z AUTO 28006KT 10SM CLR 27/10 A3012 RMK AO1 T02730095
KJAQ 021815Z AUTO 29005KT 10SM CLR 27/10 A3012 RMK AO1 T02680097
KJAQ 021755Z AUTO 28004KT 10SM CLR 27/10 A3012 RMK AO1 T02680095 10270 20150
KJAQ 021735Z AUTO 26004KT 10SM CLR 26/09 A3012 RMK AO1 T02640094
KJAQ 021715Z AUTO 00000KT 10SM CLR 26/09 A3012 RMK AO1 T02620094
KJAQ 021655Z AUTO 27003KT 10SM CLR 26/09 A3012 RMK AO1 T02640087
KJAQ 021635Z AUTO 00000KT 10SM CLR 25/09 A3012 RMK AO1 T02520087
KJAQ 021615Z AUTO 00000KT 10SM CLR 25/09 A3012 RMK AO1 T02460086
KJAQ 021555Z AUTO 00000KT 10SM CLR 22/08 A3012 RMK AO1 T02220082
KJAQ 021535Z AUTO 00000KT 10SM CLR 20/09 A3012 RMK AO1 T01990086
KJAQ 021515Z AUTO 35005KT 10SM CLR 19/09 A3012 RMK AO1 T01930090
KJAQ 021455Z AUTO 36006KT 5SM CLR 18/10 A3012 RMK AO1 T01780095
KJAQ 021435Z AUTO 35008KT 10SM CLR 17/10 A3011 RMK AO1 T01680095
KJAQ 021415Z AUTO 36008KT 10SM CLR 16/10 A3010 RMK AO1 T01590097
KJAQ 021355Z AUTO 35008KT 10SM CLR 15/10 A3010 RMK AO1 T01520100
KJAQ 021335Z AUTO 36006KT 10SM CLR 15/09 A3009 RMK AO1 T01510093
KJAQ 021315Z AUTO 35004KT 10SM CLR 15/08 A3009 RMK AO1 T01510080
KJAQ 021255Z AUTO 36007KT 10SM CLR 16/08 A3008 RMK AO1 T01550080
KJAQ 021235Z AUTO 36010KT 10SM CLR 15/09 A3007 RMK AO1 T01540089
KJAQ 021215Z AUTO 35008KT 10SM CLR 16/10 A3006 RMK AO1 T01560095
KJAQ 021155Z AUTO 35010KT 10SM CLR 16/10 A3006 RMK AO1 T01620095 10211 20158
KJAQ 021135Z AUTO 34009KT 10SM CLR 16/09 A3006 RMK AO1 T01610090
KJAQ 021115Z AUTO 35011KT 10SM CLR 17/09 A3006 RMK AO1 T01650086
KJAQ 021055Z AUTO 35013KT 10SM CLR 16/09 A3005 RMK AO1 T01610090
KJAQ 021035Z AUTO 35013KT 10SM CLR 16/08 A3006 RMK AO1 T01620084
KJAQ 021015Z AUTO 35014KT 10SM CLR 17/08 A3006 RMK AO1 T01700077
KJAQ 020955Z AUTO 35012KT 10SM CLR 17/08 A3006 RMK AO1 T01720079
KJAQ 020935Z AUTO 35011KT 10SM CLR 17/08 A3007 RMK AO1 T01700082
KJAQ 020915Z AUTO 34012KT 10SM CLR 17/08 A3007 RMK AO1 T01710082
KJAQ 020855Z AUTO 34012KT 10SM CLR 18/08 A3007 RMK AO1 T01760076
KJAQ 020835Z AUTO 34011KT 10SM CLR 18/07 A3007 RMK AO1 T01820073
KJAQ 020815Z AUTO 34012KT 10SM CLR 19/07 A3007 RMK AO1 T01850072
KJAQ 020755Z AUTO 33008KT 10SM CLR 19/07 A3007 RMK AO1 T01880070 403430188
KJAQ 020735Z AUTO 33009KT 10SM CLR 19/07 A3007 RMK AO1 T01910069
KJAQ 020715Z AUTO 33010KT 10SM CLR 20/06 A3008 RMK AO1 T01990063
KJAQ 020655Z AUTO 34009KT 10SM CLR 21/06 A3008 RMK AO1 T02060059
KJAQ 020635Z AUTO 35008KT 10SM CLR 21/06 A3008 RMK AO1 T02070060
KJAQ 020615Z AUTO 35009KT 10SM CLR 21/06 A3008 RMK AO1 T02080061
KJAQ 020555Z AUTO 35008KT 10SM CLR 21/06 A3008 RMK AO1 T02120063 10340 20212
KJAQ 020535Z AUTO 34008KT 10SM CLR 22/06 A3008 RMK AO1 T02170061
KJAQ 020515Z AUTO 33006KT 10SM CLR 22/07 A3008 RMK AO1 T02210065
KJAQ 020455Z AUTO 33005KT 10SM CLR 23/07 A3008 RMK AO1 T02260070
KJAQ 020435Z AUTO 34005KT 10SM CLR 23/07 A3008 RMK AO1 T02320066
KJAQ 020415Z AUTO 33004KT 10SM CLR 24/06 A3006 RMK AO1 T02350060
KJAQ 020355Z AUTO 34005KT 10SM CLR 24/07 A3006 RMK AO1 T02400065
KJAQ 020335Z AUTO 32006KT 10SM CLR 25/07 A3005 RMK AO1 T02500071
KJAQ 020315Z AUTO 31007KT 10SM CLR 26/07 A3005 RMK AO1 T02610066
KJAQ 020255Z AUTO 32006KT 10SM CLR 28/08 A3005 RMK AO1 T02770078
KJAQ 020235Z AUTO 30007KT 270V350 10SM CLR 29/09 A3004 RMK AO1 T02890089
KJAQ 020215Z AUTO 30008KT 10SM CLR 30/09 A3003 RMK AO1 T02980088
KJAQ 020155Z AUTO 27007G16KT 10SM CLR 31/09 A3003 RMK AO1 T03100091
KJAQ 020135Z AUTO 28008G18KT 10SM CLR 32/10 A3003 RMK AO1 T03170095
KJAQ 020115Z AUTO 25009KT 10SM CLR 32/10 A3003 RMK AO1 T03240103
KJAQ 020055Z AUTO 26007KT 10SM CLR 34/10 A3003 RMK AO1 T03350102
KJAQ 020035Z AUTO 26007KT 10SM CLR 34/10 A3003 RMK AO1 T03390102
KJAQ 020015Z AUTO 30005KT 10SM CLR 34/10 A3004 RMK AO1 T03390096
KJAQ 012355Z AUTO 25007KT 10SM CLR 34/10 A3004 RMK AO1 T03390095 10343 20283
KJAQ 012335Z AUTO 26008KT 10SM CLR 34/10 A3004 RMK AO1 T03390095
KJAQ 012315Z AUTO 26009KT 10SM CLR 34/09 A3004 RMK AO1 T03370089
KJAQ 012255Z AUTO 31007KT 10SM CLR 34/09 A3004 RMK AO1 T03360087
KJAQ 012235Z AUTO 28007KT 10SM CLR 34/09 A3004 RMK AO1 T03400085
KJAQ 012215Z AUTO 27008KT 10SM CLR 34/08 A3004 RMK AO1 T03410075
KJAQ 012155Z AUTO 27006KT 10SM CLR 34/08 A3005 RMK AO1 T03380075
KJAQ 012135Z AUTO 29007KT 10SM CLR 33/07 A3005 RMK AO1 T03340069
KJAQ 012115Z AUTO 28007KT 10SM CLR 33/07 A3006 RMK AO1 T03310066
KJAQ 012055Z AUTO 27006KT 10SM CLR 33/07 A3006 RMK AO1 T03280065
KJAQ 012035Z AUTO 28006KT 10SM CLR 32/05 A3007 RMK AO1 T03240051
KJAQ 012015Z AUTO 27005KT 10SM CLR 32/05 A3007 RMK AO1 T03210054
KJAQ 011955Z AUTO 27006KT 10SM CLR 32/05 A3007 RMK AO1 T03190053